Pagina principale
METAR-TAF:

METAR-TAF

Aeroporti :

Zara, Croazia

Aeroporto di Zara-Zemonico

latitudine: 44-06N, longitudine: 015-21E, altezza: 82 m

Osservazione

Il bollettino è stato emesso 10 minuti fa, alle 08:00 UTC
Vento 11 kt da ovest/nord-ovest, variando fra ovest e nord/nord-ovest
Temperature 23°C
Umidità 41%
Pressione 1019 hPa
Visibilità 10 km o più
Poco nuvoloso ad un'altezza di 5000 ft

METAR: LDZD 270800Z 30011KT 280V340 9999 FEW050 23/09 Q1019 NOSIG

Ora: 10:10 (08:10 UTC)

Previsione

Il bollettino è stato emesso 2 ore e 45 minuti fa, alle 05:25 UTC
Previsione valida dal 27 alle 06 UTC al 28 alle 06 UTC
Vento 5 kt da nord-est
Visibilità 10 km o più
nessuna nube inferiore a 1500 m e nessun cumulonembo
Temporaneamente
dal 27 alle 10 UTC al 27 alle 18 UTC
Vento 12 kt da nord-est

TAF: LDZD 270525Z 2706/2806 05005KT CAVOK TX26/2713Z TN12/2803Z TEMPO 2710/2718 04012KT

Osservazioni e previsioni meteorologiche di più di 4000 aeroporti (messaggi METAR e TAF).

Le stazioni disponibili sono rappresentate dai dischi gialli e rossi sulla carta.

Puntare il mouse per vedere il nome della stazione.

Clicca sopra per visualizzare le osservazioni e previsioni meteorologiche.

Per cambiare la mappa : fare clic sui pulsanti verdi con una croce nera per ingrandire, il pulsante verde con un trattino per diminuire, o sulla freccia verde per le mappe adiacenti.


METAR-TAF: